createdAt,value
2019-01-12T00:04:19.224Z,29.87
2019-01-12T00:09:10.130Z,29.00
2019-01-12T00:14:01.066Z,23.43
2019-01-12T00:18:52.753Z,16.27
2019-01-12T00:23:43.689Z,21.23
2019-01-12T00:28:34.607Z,23.20
2019-01-12T00:33:25.520Z,14.47
2019-01-12T00:38:16.419Z,14.75
2019-01-12T00:43:07.420Z,17.87
2019-01-12T00:47:59.085Z,28.07
2019-01-12T00:52:50.000Z,29.23
2019-01-12T00:57:40.975Z,21.60
2019-01-12T01:02:31.941Z,23.20
2019-01-12T01:07:22.848Z,26.33
2019-01-12T01:12:13.840Z,26.17
2019-01-12T01:17:04.763Z,20.80
2019-01-12T01:21:55.703Z,23.33
2019-01-12T01:26:46.678Z,27.93
2019-01-12T01:31:37.575Z,19.17
2019-01-12T01:36:28.509Z,23.37
2019-01-12T01:41:19.409Z,27.53
2019-01-12T01:46:10.306Z,26.77
2019-01-12T01:51:01.282Z,15.60
2019-01-12T01:55:52.182Z,32.47
2019-01-12T02:00:43.082Z,34.30
2019-01-12T02:05:34.034Z,27.10
2019-01-12T02:10:24.925Z,19.60
2019-01-12T02:15:15.817Z,24.23
2019-01-12T02:20:06.743Z,24.77
2019-01-12T02:25:00.008Z,15.97
2019-01-12T02:29:48.554Z,23.80
2019-01-12T02:34:40.202Z,17.83
2019-01-12T02:39:31.909Z,24.30
2019-01-12T02:44:22.812Z,22.37
2019-01-12T02:49:13.730Z,33.67
2019-01-12T02:54:04.648Z,20.23
2019-01-12T02:58:55.546Z,20.83
2019-01-12T03:03:46.447Z,24.30
2019-01-12T03:08:37.411Z,18.33
2019-01-12T03:13:28.329Z,20.23
2019-01-12T03:18:19.228Z,35.33
2019-01-12T03:23:10.131Z,28.45
2019-01-12T03:28:01.022Z,28.73
2019-01-12T03:32:52.686Z,30.43
2019-01-12T03:37:43.586Z,23.47
2019-01-12T03:42:34.558Z,33.20
2019-01-12T03:47:25.466Z,22.43
2019-01-12T03:52:16.362Z,22.47
2019-01-12T03:57:07.262Z,26.90
2019-01-12T04:01:58.171Z,32.30
2019-01-12T04:06:49.810Z,26.27
2019-01-12T04:11:41.451Z,22.73
2019-01-12T04:16:32.354Z,26.73
2019-01-12T04:21:23.991Z,24.23
2019-01-12T04:26:15.618Z,20.07
2019-01-12T04:31:06.538Z,17.77
2019-01-12T04:35:58.183Z,17.57
2019-01-12T04:40:49.826Z,20.73
2019-01-12T04:45:41.518Z,17.53
2019-01-12T04:50:32.423Z,23.50
2019-01-12T04:55:23.331Z,21.70
2019-01-12T05:00:14.231Z,30.70
2019-01-12T05:05:05.186Z,25.33
2019-01-12T05:09:56.101Z,18.47
2019-01-12T05:14:47.030Z,15.00
2019-01-12T05:19:37.932Z,22.00
2019-01-12T05:24:28.841Z,26.98
2019-01-12T05:29:19.801Z,24.77
2019-01-12T05:34:10.706Z,30.60
2019-01-12T05:39:01.618Z,21.67
2019-01-12T05:43:52.527Z,14.90
2019-01-12T05:48:43.442Z,24.90
2019-01-12T05:53:34.382Z,11.53
2019-01-12T05:58:25.274Z,23.13
2019-01-12T06:03:16.178Z,18.17
2019-01-12T06:08:07.129Z,15.57
2019-01-12T06:12:58.026Z,18.93
2019-01-12T06:17:48.942Z,25.37
2019-01-12T06:22:39.895Z,10.23
2019-01-12T06:27:30.790Z,21.07
2019-01-12T06:32:21.695Z,14.77
2019-01-12T06:37:12.613Z,10.93
2019-01-12T06:42:03.565Z,15.03
2019-01-12T06:46:54.478Z,19.23
2019-01-12T06:51:45.408Z,24.00
2019-01-12T06:56:36.314Z,14.37
2019-01-12T07:01:27.209Z,13.03
2019-01-12T07:06:18.170Z,12.93
2019-01-12T07:11:09.069Z,12.77
2019-01-12T07:15:59.999Z,11.83
2019-01-12T07:20:50.903Z,11.93
2019-01-12T07:25:42.658Z,21.93
2019-01-12T07:30:33.564Z,25.00
2019-01-12T07:35:24.466Z,16.23
2019-01-12T07:40:15.406Z,18.83
2019-01-12T07:45:06.311Z,16.77
2019-01-12T07:49:57.255Z,19.90
2019-01-12T07:54:48.164Z,20.20
2019-01-12T07:59:39.094Z,9.17
2019-01-12T08:04:30.000Z,12.37
2019-01-12T08:09:20.954Z,18.77
2019-01-12T08:14:12.599Z,21.58
2019-01-12T08:19:04.298Z,18.53
2019-01-12T08:23:56.025Z,17.77
2019-01-12T08:28:46.973Z,13.37
2019-01-12T08:33:37.973Z,20.47
2019-01-12T08:38:28.914Z,14.20
2019-01-12T08:43:20.593Z,12.73
2019-01-12T08:48:11.511Z,14.70
2019-01-12T08:53:02.402Z,14.03
2019-01-12T08:57:54.051Z,14.60
2019-01-12T09:02:45.687Z,22.90
2019-01-12T09:07:36.657Z,7.73
2019-01-12T09:12:27.554Z,8.73
2019-01-12T09:17:18.543Z,13.37
2019-01-12T09:22:09.546Z,10.43
2019-01-12T09:27:00.450Z,9.88
2019-01-12T09:31:51.497Z,8.93
2019-01-12T09:36:43.142Z,5.93
2019-01-12T09:41:34.050Z,6.53
2019-01-12T09:46:25.697Z,7.90
2019-01-12T09:51:16.662Z,2.73
2019-01-12T09:56:07.563Z,5.00
2019-01-12T10:00:58.507Z,2.30
2019-01-12T10:05:49.426Z,7.67
2019-01-12T10:10:40.331Z,2.63
2019-01-12T10:15:31.257Z,5.60
2019-01-12T10:20:22.150Z,2.57
2019-01-12T10:25:13.061Z,2.37
2019-01-12T10:30:04.011Z,2.00
2019-01-12T10:34:54.913Z,1.80
2019-01-12T10:39:45.889Z,2.93
2019-01-12T10:44:37.530Z,1.97
2019-01-12T10:49:29.241Z,3.20
2019-01-12T10:54:20.284Z,3.00
2019-01-12T10:59:12.669Z,2.17
2019-01-12T11:04:03.623Z,1.70
2019-01-12T11:08:54.599Z,1.90
2019-01-12T11:13:45.623Z,1.53
2019-01-12T11:18:36.535Z,1.97
2019-01-12T11:23:27.516Z,1.90
2019-01-12T11:28:18.431Z,2.40
2019-01-12T11:33:09.339Z,2.80
2019-01-12T11:38:00.253Z,1.77
2019-01-12T11:42:51.144Z,1.80
2019-01-12T11:47:42.102Z,2.50
2019-01-12T11:52:33.010Z,2.83
2019-01-12T11:57:23.934Z,1.90
2019-01-12T12:02:14.831Z,1.60
2019-01-12T12:07:05.774Z,3.10
2019-01-12T12:11:56.681Z,2.63
2019-01-12T12:16:47.614Z,2.20
2019-01-12T12:21:38.520Z,2.40
2019-01-12T12:26:29.445Z,2.30
2019-01-12T12:31:20.397Z,1.90
2019-01-12T12:36:12.038Z,2.50
2019-01-12T12:41:03.680Z,3.13
2019-01-12T12:45:55.374Z,2.10
2019-01-12T12:50:46.282Z,3.30
2019-01-12T12:55:37.177Z,6.53
2019-01-12T13:00:28.122Z,2.53
2019-01-12T13:05:19.022Z,4.50
2019-01-12T13:10:12.918Z,2.70
2019-01-12T13:15:03.818Z,2.87
2019-01-12T13:19:54.782Z,5.15
2019-01-12T13:24:45.683Z,2.93
2019-01-12T13:29:36.578Z,5.27
2019-01-12T13:34:27.534Z,3.00
2019-01-12T13:39:18.439Z,2.97
2019-01-12T13:44:09.378Z,2.83
2019-01-12T13:49:00.277Z,3.40
2019-01-12T13:53:51.186Z,4.10
2019-01-12T13:58:42.090Z,4.53
2019-01-12T14:03:33.042Z,4.25
2019-01-12T14:08:23.938Z,4.20
2019-01-12T14:13:14.895Z,4.30
2019-01-12T14:18:05.791Z,3.90
2019-01-12T14:22:56.682Z,4.53
2019-01-12T14:27:54.427Z,3.90
2019-01-12T14:32:38.504Z,4.27
2019-01-12T14:37:30.150Z,5.10
2019-01-12T14:42:21.058Z,5.18
2019-01-12T14:47:12.783Z,3.93
2019-01-12T14:52:04.496Z,4.73
2019-01-12T14:56:55.403Z,4.20
2019-01-12T15:01:46.327Z,4.20
2019-01-12T15:06:37.295Z,4.93
2019-01-12T15:11:28.922Z,4.27
2019-01-12T15:16:20.620Z,4.87
2019-01-12T15:21:11.521Z,4.50
2019-01-12T15:26:02.450Z,4.80
2019-01-12T15:30:53.349Z,4.93
2019-01-12T15:35:44.290Z,4.13
2019-01-12T15:40:35.203Z,4.30
2019-01-12T15:45:26.134Z,4.20
2019-01-12T15:50:17.834Z,5.57
2019-01-12T15:55:08.809Z,5.80
2019-01-12T15:59:59.710Z,6.13
2019-01-12T16:04:50.634Z,5.13
2019-01-12T16:09:41.548Z,5.03
2019-01-12T16:14:32.451Z,5.13
2019-01-12T16:19:23.347Z,5.37
2019-01-12T16:24:14.251Z,6.13
2019-01-12T16:29:05.158Z,6.10
2019-01-12T16:33:56.817Z,6.57
2019-01-12T16:38:47.783Z,6.12
2019-01-12T16:43:38.690Z,6.20
2019-01-12T16:48:29.602Z,5.27
2019-01-12T16:53:20.547Z,5.80
2019-01-12T16:58:11.450Z,4.57
2019-01-12T17:03:02.357Z,4.87
2019-01-12T17:07:53.250Z,5.27
2019-01-12T17:12:44.145Z,5.67
2019-01-12T17:17:35.786Z,5.30
2019-01-12T17:22:27.666Z,5.03
2019-01-12T17:27:18.573Z,5.90
2019-01-12T17:32:09.527Z,4.87
2019-01-12T17:37:01.175Z,6.20
2019-01-12T17:41:52.239Z,5.60
2019-01-12T17:46:43.200Z,6.13
2019-01-12T17:51:34.262Z,7.15
2019-01-12T17:56:25.910Z,7.28
2019-01-12T18:01:17.194Z,5.93
2019-01-12T18:06:08.090Z,6.63
2019-01-12T18:10:58.989Z,6.60
2019-01-12T18:15:49.938Z,6.40
2019-01-12T18:20:40.850Z,6.30
2019-01-12T18:25:31.742Z,6.53
2019-01-12T18:30:22.690Z,6.87
2019-01-12T18:35:13.612Z,5.57
2019-01-12T18:40:04.550Z,6.10
2019-01-12T18:44:55.556Z,6.60
2019-01-12T18:49:46.454Z,6.07
2019-01-12T18:54:37.355Z,6.07
2019-01-12T18:59:28.274Z,5.93
2019-01-12T19:04:19.185Z,6.25
2019-01-12T19:09:10.134Z,6.43
2019-01-12T19:14:01.029Z,6.33
2019-01-12T19:18:51.991Z,5.90
2019-01-12T19:23:42.914Z,5.40
2019-01-12T19:28:33.935Z,5.50
2019-01-12T19:33:24.852Z,5.23
2019-01-12T19:38:15.758Z,5.30
2019-01-12T19:43:06.654Z,5.40
2019-01-12T19:47:57.594Z,6.07
2019-01-12T19:52:48.513Z,6.40
2019-01-12T19:57:39.420Z,5.30
2019-01-12T20:02:30.318Z,5.20
2019-01-12T20:07:21.213Z,5.10
2019-01-12T20:12:12.911Z,5.00
2019-01-12T20:17:04.948Z,4.37
2019-01-12T20:21:56.357Z,6.15
2019-01-12T20:26:47.208Z,5.23
2019-01-12T20:31:39.989Z,5.33
2019-01-12T20:36:44.746Z,4.67
2019-01-12T20:41:38.370Z,5.13
2019-01-12T20:46:30.243Z,5.30
2019-01-12T20:51:24.211Z,6.30
2019-01-12T20:56:28.995Z,6.37
2019-01-12T21:01:28.762Z,5.10
2019-01-12T21:06:24.558Z,5.15
2019-01-12T21:11:16.203Z,4.33
2019-01-12T21:16:08.831Z,4.13
2019-01-12T21:20:59.729Z,4.00
2019-01-12T21:25:57.594Z,7.60
2019-01-12T21:30:48.505Z,3.90
2019-01-12T21:35:39.401Z,3.90
2019-01-12T21:40:31.038Z,4.53
2019-01-12T21:45:22.697Z,4.87
2019-01-12T21:50:13.598Z,3.07
2019-01-12T21:55:05.234Z,4.60
2019-01-12T21:59:56.151Z,2.83
2019-01-12T22:04:47.126Z,3.50
2019-01-12T22:09:38.174Z,2.60
2019-01-12T22:14:29.882Z,2.40
2019-01-12T22:19:20.777Z,4.40
2019-01-12T22:24:11.722Z,3.20
2019-01-12T22:29:02.614Z,3.00
2019-01-12T22:33:53.519Z,2.53
2019-01-12T22:38:44.483Z,7.97
2019-01-12T22:43:35.387Z,2.93
2019-01-12T22:48:26.322Z,5.83
2019-01-12T22:53:17.227Z,3.00
2019-01-12T22:58:08.152Z,4.60
2019-01-12T23:02:59.069Z,6.07
2019-01-12T23:07:49.981Z,2.67
2019-01-12T23:12:40.942Z,2.70
2019-01-12T23:17:32.590Z,7.23
2019-01-12T23:22:24.273Z,1.90
2019-01-12T23:27:15.198Z,3.70
2019-01-12T23:32:06.113Z,5.50
2019-01-12T23:36:57.025Z,2.10
2019-01-12T23:41:47.962Z,3.00
2019-01-12T23:46:38.981Z,3.20
2019-01-12T23:51:29.899Z,2.50
2019-01-12T23:56:20.801Z,1.87
